createdAt,value
2018-12-19T00:00:40.345Z,22.05
2018-12-19T00:03:08.857Z,20.88
2018-12-19T00:05:37.339Z,20.45
2018-12-19T00:08:06.227Z,19.95
2018-12-19T00:10:35.114Z,20.55
2018-12-19T00:13:04.008Z,20.70
2018-12-19T00:15:32.509Z,22.73
2018-12-19T00:18:01.383Z,22.00
2018-12-19T00:20:30.262Z,19.85
2018-12-19T00:22:58.760Z,20.32
2018-12-19T00:25:27.254Z,21.97
2018-12-19T00:27:56.039Z,20.02
2018-12-19T00:30:24.921Z,21.15
2018-12-19T00:32:53.416Z,20.25
2018-12-19T00:35:21.915Z,21.50
2018-12-19T00:37:50.832Z,20.40
2018-12-19T00:40:19.736Z,20.15
2018-12-19T00:42:48.947Z,19.32
2018-12-19T00:45:17.437Z,20.15
2018-12-19T00:47:46.744Z,20.57
2018-12-19T00:50:15.639Z,20.20
2018-12-19T00:52:44.517Z,19.05
2018-12-19T00:55:13.795Z,18.40
2018-12-19T00:57:42.678Z,20.23
2018-12-19T01:00:12.221Z,18.65
2018-12-19T01:02:40.706Z,18.02
2018-12-19T01:05:09.604Z,17.65
2018-12-19T01:07:38.858Z,17.80
2018-12-19T01:10:08.133Z,18.02
2018-12-19T01:12:36.625Z,17.85
2018-12-19T01:15:06.548Z,17.12
2018-12-19T01:17:35.433Z,16.35
2018-12-19T01:20:04.788Z,17.50
2018-12-19T01:22:33.271Z,17.75
2018-12-19T01:25:02.560Z,16.50
2018-12-19T01:27:31.063Z,18.73
2018-12-19T01:29:59.551Z,16.48
2018-12-19T01:32:28.065Z,16.45
2018-12-19T01:34:56.556Z,15.68
2018-12-19T01:37:25.432Z,16.30
2018-12-19T01:39:54.311Z,17.07
2018-12-19T01:42:22.800Z,16.42
2018-12-19T01:44:51.303Z,16.80
2018-12-19T01:47:19.786Z,16.10
2018-12-19T01:49:48.615Z,15.90
2018-12-19T01:52:17.798Z,15.98
2018-12-19T01:54:46.623Z,16.67
2018-12-19T01:57:15.514Z,14.00
2018-12-19T01:59:44.022Z,17.48
2018-12-19T02:02:12.911Z,16.32
2018-12-19T02:04:41.400Z,14.40
2018-12-19T02:07:10.291Z,16.07
2018-12-19T02:09:39.171Z,17.62
2018-12-19T02:12:08.065Z,13.72
2018-12-19T02:14:36.979Z,16.70
2018-12-19T02:17:05.459Z,16.85
2018-12-19T02:19:34.451Z,16.00
2018-12-19T02:22:03.747Z,14.18
2018-12-19T02:24:32.651Z,14.73
2018-12-19T02:27:01.544Z,16.10
2018-12-19T02:29:30.055Z,13.95
2018-12-19T02:31:58.556Z,15.38
2018-12-19T02:34:27.403Z,14.13
2018-12-19T02:36:55.899Z,13.75
2018-12-19T02:39:24.731Z,13.28
2018-12-19T02:41:53.263Z,14.53
2018-12-19T02:44:22.155Z,14.47
2018-12-19T02:46:50.661Z,14.33
2018-12-19T02:49:19.170Z,12.88
2018-12-19T02:51:48.070Z,13.83
2018-12-19T02:54:16.580Z,12.93
2018-12-19T02:56:45.487Z,13.50
2018-12-19T02:59:13.982Z,13.10
2018-12-19T03:01:42.874Z,14.00
2018-12-19T03:04:11.756Z,14.18
2018-12-19T03:06:40.590Z,14.75
2018-12-19T03:09:09.112Z,13.60
2018-12-19T03:11:37.604Z,13.78
2018-12-19T03:14:06.427Z,13.90
2018-12-19T03:16:35.318Z,15.32
2018-12-19T03:19:04.622Z,13.98
2018-12-19T03:21:33.116Z,13.93
2018-12-19T03:24:02.015Z,14.28
2018-12-19T03:26:30.908Z,13.93
2018-12-19T03:28:59.413Z,14.28
2018-12-19T03:31:27.925Z,13.28
2018-12-19T03:33:56.690Z,13.35
2018-12-19T03:36:25.572Z,12.23
2018-12-19T03:38:54.469Z,13.75
2018-12-19T03:41:23.776Z,10.53
2018-12-19T03:43:52.282Z,12.37
2018-12-19T03:46:21.171Z,12.20
2018-12-19T03:48:55.176Z,11.38
2018-12-19T03:51:24.104Z,12.23
2018-12-19T03:53:53.537Z,12.25
2018-12-19T03:56:22.031Z,12.47
2018-12-19T03:58:50.551Z,12.35
2018-12-19T04:01:19.046Z,11.83
2018-12-19T04:03:47.566Z,12.85
2018-12-19T04:06:17.264Z,12.60
2018-12-19T04:08:45.767Z,13.08
2018-12-19T04:11:14.656Z,12.43
2018-12-19T04:13:43.548Z,11.97
2018-12-19T04:16:12.424Z,11.43
2018-12-19T04:18:41.072Z,12.30
2018-12-19T04:21:09.824Z,12.40
2018-12-19T04:23:38.729Z,11.90
2018-12-19T04:26:07.242Z,12.18
2018-12-19T04:28:35.738Z,11.78
2018-12-19T04:31:05.026Z,12.03
2018-12-19T04:33:33.929Z,12.90
2018-12-19T04:36:02.429Z,11.05
2018-12-19T04:38:31.613Z,11.63
2018-12-19T04:41:00.131Z,12.13
2018-12-19T04:43:28.638Z,11.22
2018-12-19T04:45:57.927Z,12.60
2018-12-19T04:48:26.816Z,13.08
2018-12-19T04:50:55.710Z,12.00
2018-12-19T04:53:24.624Z,11.63
2018-12-19T04:55:53.908Z,12.28
2018-12-19T04:58:22.422Z,11.75
2018-12-19T05:00:51.323Z,11.22
2018-12-19T05:03:19.813Z,11.65
2018-12-19T05:05:49.107Z,12.13
2018-12-19T05:08:17.607Z,15.53
2018-12-19T05:10:46.490Z,14.25
2018-12-19T05:13:15.008Z,13.55
2018-12-19T05:15:43.516Z,13.25
2018-12-19T05:18:12.438Z,14.45
2018-12-19T05:20:40.968Z,12.70
2018-12-19T05:23:09.868Z,14.50
2018-12-19T05:25:38.359Z,14.45
2018-12-19T05:28:07.203Z,18.27
2018-12-19T05:30:36.219Z,12.43
2018-12-19T05:33:04.725Z,14.30
2018-12-19T05:35:33.256Z,11.97
2018-12-19T05:38:01.763Z,12.60
2018-12-19T05:40:31.071Z,13.43
2018-12-19T05:42:59.612Z,13.18
2018-12-19T05:45:28.517Z,12.35
2018-12-19T05:47:57.067Z,13.38
2018-12-19T05:50:28.152Z,15.50
2018-12-19T05:52:56.742Z,13.25
2018-12-19T05:55:25.239Z,13.18
2018-12-19T05:57:54.627Z,18.20
2018-12-19T06:00:31.756Z,14.95
2018-12-19T06:03:01.007Z,13.70
2018-12-19T06:05:34.991Z,14.30
2018-12-19T06:08:05.259Z,14.98
2018-12-19T06:10:38.637Z,15.30
2018-12-19T06:16:03.933Z,15.35
2018-12-19T06:18:33.754Z,15.90
2018-12-19T06:21:03.304Z,12.98
2018-12-19T06:23:32.091Z,13.65
2018-12-19T06:26:00.995Z,14.00
2018-12-19T06:28:29.780Z,13.68
2018-12-19T06:30:58.805Z,14.05
2018-12-19T06:33:27.323Z,21.75
2018-12-19T06:35:56.208Z,15.03
2018-12-19T06:38:24.735Z,15.10
2018-12-19T06:40:53.214Z,13.58
2018-12-19T06:43:21.746Z,13.75
2018-12-19T06:45:50.247Z,14.10
2018-12-19T06:48:18.763Z,14.43
2018-12-19T06:50:47.670Z,15.05
2018-12-19T06:53:17.519Z,15.40
2018-12-19T06:55:46.045Z,13.55
2018-12-19T06:58:14.945Z,15.28
2018-12-19T07:00:43.659Z,13.80
2018-12-19T07:03:12.608Z,15.95
2018-12-19T07:05:41.114Z,13.50
2018-12-19T07:08:09.610Z,14.95
2018-12-19T07:10:39.246Z,14.58
2018-12-19T07:13:08.191Z,14.45
2018-12-19T07:15:37.099Z,15.68
2018-12-19T07:18:05.999Z,14.80
2018-12-19T07:20:34.849Z,15.50
2018-12-19T07:23:03.584Z,15.35
2018-12-19T07:25:32.084Z,13.60
2018-12-19T07:28:00.605Z,14.40
2018-12-19T07:30:29.496Z,14.87
2018-12-19T07:32:58.415Z,15.88
2018-12-19T07:35:26.932Z,14.40
2018-12-19T07:37:55.457Z,14.28
2018-12-19T07:40:23.965Z,15.13
2018-12-19T07:42:52.852Z,15.70
2018-12-19T07:45:21.735Z,14.83
2018-12-19T07:47:50.262Z,15.85
2018-12-19T07:50:18.774Z,14.60
2018-12-19T07:52:48.487Z,16.57
2018-12-19T07:55:17.368Z,14.58
2018-12-19T07:57:45.868Z,15.23
2018-12-19T08:00:15.141Z,17.00
2018-12-19T08:02:44.034Z,14.87
2018-12-19T08:05:12.519Z,14.53
2018-12-19T08:07:41.033Z,15.53
2018-12-19T08:10:09.914Z,15.72
2018-12-19T08:12:38.427Z,14.40
2018-12-19T08:15:07.708Z,14.85
2018-12-19T08:17:36.209Z,15.98
2018-12-19T08:20:05.757Z,14.40
2018-12-19T08:22:34.659Z,15.32
2018-12-19T08:25:03.550Z,16.10
2018-12-19T08:27:32.441Z,14.43
2018-12-19T08:30:01.319Z,14.47
2018-12-19T08:32:30.260Z,14.75
2018-12-19T08:34:58.768Z,16.62
2018-12-19T08:37:27.640Z,16.27
2018-12-19T08:39:56.527Z,15.03
2018-12-19T08:42:25.021Z,14.43
2018-12-19T08:44:53.927Z,14.68
2018-12-19T08:47:23.250Z,13.83
2018-12-19T08:49:51.759Z,14.68
2018-12-19T08:52:20.264Z,15.55
2018-12-19T08:54:48.755Z,14.85
2018-12-19T08:57:17.644Z,14.58
2018-12-19T08:59:46.927Z,14.20
2018-12-19T09:02:15.449Z,17.42
2018-12-19T09:04:43.987Z,15.98
2018-12-19T09:07:12.472Z,16.07
2018-12-19T09:09:40.961Z,14.30
2018-12-19T09:12:09.836Z,14.78
2018-12-19T09:14:38.351Z,14.90
2018-12-19T09:17:07.697Z,14.30
2018-12-19T09:19:37.341Z,15.05
2018-12-19T09:22:05.876Z,13.75
2018-12-19T09:24:34.464Z,14.58
2018-12-19T09:27:04.084Z,16.23
2018-12-19T09:29:32.839Z,14.55
2018-12-19T09:32:01.724Z,14.30
2018-12-19T09:34:30.744Z,14.90
2018-12-19T09:36:59.275Z,14.38
2018-12-19T09:39:28.161Z,14.28
2018-12-19T09:41:57.436Z,15.05
2018-12-19T09:44:25.925Z,15.72
2018-12-19T09:46:54.399Z,14.23
2018-12-19T09:49:23.270Z,15.18
2018-12-19T09:51:51.773Z,14.85
2018-12-19T09:54:20.684Z,14.98
2018-12-19T09:56:49.575Z,14.65
2018-12-19T09:59:18.086Z,15.05
2018-12-19T10:01:46.972Z,15.72
2018-12-19T10:04:15.473Z,14.87
2018-12-19T10:06:44.387Z,14.63
2018-12-19T10:09:15.037Z,15.08
2018-12-19T10:11:43.921Z,16.35
2018-12-19T10:14:12.430Z,15.50
2018-12-19T10:16:41.913Z,14.68
2018-12-19T10:19:10.903Z,15.68
2018-12-19T10:21:39.795Z,15.20
2018-12-19T10:24:08.756Z,14.28
2018-12-19T10:26:37.980Z,15.60
2018-12-19T10:29:07.554Z,15.88
2018-12-19T10:31:36.044Z,15.35
2018-12-19T10:34:05.695Z,15.00
2018-12-19T10:36:38.383Z,16.95
2018-12-19T10:39:13.191Z,15.20
2018-12-19T10:41:42.402Z,15.48
2018-12-19T10:44:11.815Z,15.83
2018-12-19T10:46:41.100Z,13.65
2018-12-19T10:49:10.001Z,15.15
2018-12-19T10:51:38.905Z,14.65
2018-12-19T10:54:08.311Z,15.50
2018-12-19T10:56:37.246Z,14.83
2018-12-19T10:59:05.735Z,15.23
2018-12-19T11:01:34.255Z,15.35
2018-12-19T11:04:03.522Z,13.95
2018-12-19T11:06:32.003Z,15.32
2018-12-19T11:09:00.949Z,14.65
2018-12-19T11:11:32.453Z,14.40
2018-12-19T11:14:00.340Z,13.93
2018-12-19T11:16:29.855Z,14.58
2018-12-19T11:18:58.340Z,15.28
2018-12-19T11:21:26.881Z,14.53
2018-12-19T11:23:56.061Z,16.17
2018-12-19T11:26:25.163Z,15.18
2018-12-19T11:28:53.660Z,16.57
2018-12-19T11:31:22.562Z,17.90
2018-12-19T11:33:51.085Z,15.68
2018-12-19T11:36:20.354Z,18.15
2018-12-19T11:38:48.868Z,17.90
2018-12-19T11:41:18.222Z,16.32
2018-12-19T11:43:46.706Z,16.25
2018-12-19T11:46:15.587Z,15.28
2018-12-19T11:48:44.078Z,17.23
2018-12-19T11:51:12.599Z,14.63
2018-12-19T11:53:41.087Z,18.05
2018-12-19T11:56:09.571Z,18.10
2018-12-19T11:58:39.419Z,18.25
2018-12-19T12:01:08.587Z,16.20
2018-12-19T12:03:37.471Z,18.80
2018-12-19T12:06:05.984Z,20.48
2018-12-19T12:08:35.268Z,19.60
2018-12-19T12:11:04.163Z,20.00
2018-12-19T12:13:32.653Z,18.12
2018-12-19T12:16:01.582Z,19.25
2018-12-19T12:18:30.477Z,17.77
2018-12-19T12:20:59.393Z,20.20
2018-12-19T12:23:28.282Z,17.27
2018-12-19T12:25:57.487Z,19.65
2018-12-19T12:28:26.548Z,18.10
2018-12-19T12:30:55.422Z,17.35
2018-12-19T12:33:23.948Z,17.52
2018-12-19T12:35:53.748Z,18.00
2018-12-19T12:38:22.936Z,20.05
2018-12-19T12:40:51.818Z,18.00
2018-12-19T12:43:20.703Z,19.52
2018-12-19T12:45:49.196Z,17.45
2018-12-19T12:48:17.671Z,19.17
2018-12-19T12:50:46.168Z,19.32
2018-12-19T12:53:16.123Z,19.50
2018-12-19T12:55:44.915Z,17.70
2018-12-19T12:58:13.795Z,19.42
2018-12-19T13:00:42.258Z,17.67
2018-12-19T13:03:11.165Z,17.75
2018-12-19T13:05:40.385Z,18.30
2018-12-19T13:08:09.515Z,18.48
2018-12-19T13:10:38.506Z,18.70
2018-12-19T13:13:07.374Z,18.57
2018-12-19T13:15:43.771Z,18.30
2018-12-19T13:18:12.250Z,18.23
2018-12-19T13:20:40.856Z,18.77
2018-12-19T13:23:09.373Z,19.67
2018-12-19T13:25:38.298Z,16.90
2018-12-19T13:28:06.862Z,19.67
2018-12-19T13:30:36.152Z,18.98
2018-12-19T13:33:05.051Z,20.27
2018-12-19T13:35:33.551Z,19.05
2018-12-19T13:38:02.034Z,19.35
2018-12-19T13:40:30.535Z,20.68
2018-12-19T13:42:59.415Z,20.20
2018-12-19T13:45:28.576Z,19.67
2018-12-19T13:47:57.860Z,19.98
2018-12-19T13:50:26.769Z,18.55
2018-12-19T13:52:55.647Z,19.48
2018-12-19T13:55:24.468Z,18.45
2018-12-19T13:57:53.356Z,19.87
2018-12-19T14:00:22.399Z,19.80
2018-12-19T14:02:52.200Z,19.30
2018-12-19T14:05:21.479Z,19.37
2018-12-19T14:07:49.972Z,19.00
2018-12-19T14:10:18.483Z,19.45
2018-12-19T14:12:47.376Z,19.75
2018-12-19T14:15:16.222Z,21.17
2018-12-19T14:17:44.707Z,19.80
2018-12-19T14:20:13.194Z,18.82
2018-12-19T14:22:41.689Z,20.57
2018-12-19T14:25:10.990Z,20.50
2018-12-19T14:27:39.545Z,20.82
2018-12-19T14:30:09.215Z,22.22
2018-12-19T14:32:38.486Z,18.07
2018-12-19T14:35:07.753Z,19.07
2018-12-19T14:37:38.564Z,20.45
2018-12-19T14:40:07.890Z,19.20
2018-12-19T14:42:36.395Z,20.02
2018-12-19T14:45:07.007Z,20.88
2018-12-19T14:47:35.524Z,20.30
2018-12-19T14:50:05.478Z,21.20
2018-12-19T14:52:35.228Z,19.95
2018-12-19T14:55:04.587Z,20.70
2018-12-19T14:57:33.107Z,22.80
2018-12-19T15:00:01.996Z,18.90
2018-12-19T15:02:30.991Z,20.92
2018-12-19T15:04:59.960Z,21.87
2018-12-19T15:07:28.851Z,23.77
2018-12-19T15:09:57.396Z,23.20
2018-12-19T15:12:26.283Z,21.37
2018-12-19T15:14:54.763Z,22.15
2018-12-19T15:17:24.056Z,22.13
2018-12-19T15:19:52.562Z,21.20
2018-12-19T15:22:21.804Z,22.82
2018-12-19T15:24:50.387Z,22.82
2018-12-19T15:27:19.259Z,24.82
2018-12-19T15:29:48.145Z,23.73
2018-12-19T15:32:16.643Z,22.40
2018-12-19T15:34:45.520Z,22.07
2018-12-19T15:37:14.425Z,22.22
2018-12-19T15:39:42.928Z,23.35
2018-12-19T15:42:11.807Z,22.87
2018-12-19T15:44:40.505Z,23.02
2018-12-19T15:47:09.375Z,23.87
2018-12-19T15:49:37.876Z,23.02
2018-12-19T15:52:07.087Z,23.83
2018-12-19T15:54:35.606Z,23.35
2018-12-19T15:57:05.334Z,24.10
2018-12-19T15:59:34.571Z,24.37
2018-12-19T16:02:03.464Z,24.95
2018-12-19T16:04:31.956Z,23.57
2018-12-19T16:07:00.824Z,24.07
2018-12-19T16:09:29.304Z,24.70
2018-12-19T16:11:58.191Z,23.70
2018-12-19T16:14:27.447Z,25.60
2018-12-19T16:16:57.576Z,25.65
2018-12-19T16:19:26.529Z,26.75
2018-12-19T16:21:55.071Z,27.58
2018-12-19T16:24:23.943Z,25.97
2018-12-19T16:26:52.438Z,25.35
2018-12-19T16:29:21.351Z,24.43
2018-12-19T16:31:50.249Z,26.20
2018-12-19T16:34:18.748Z,25.12
2018-12-19T16:36:47.643Z,23.32
2018-12-19T16:39:16.196Z,24.07
2018-12-19T16:41:44.718Z,26.77
2018-12-19T16:44:13.892Z,27.05
2018-12-19T16:46:42.423Z,22.93
2018-12-19T16:49:11.336Z,26.42
2018-12-19T16:51:40.679Z,25.23
2018-12-19T16:54:09.196Z,27.75
2018-12-19T16:56:38.458Z,25.95
2018-12-19T16:59:07.607Z,27.27
2018-12-19T17:01:36.522Z,25.17
2018-12-19T17:04:05.418Z,26.57
2018-12-19T17:06:34.015Z,27.95
2018-12-19T17:09:02.789Z,25.25
2018-12-19T17:11:31.296Z,27.52
2018-12-19T17:14:00.180Z,28.75
2018-12-19T17:16:29.026Z,25.45
2018-12-19T17:18:58.355Z,27.37
2018-12-19T17:21:26.877Z,29.12
2018-12-19T17:23:55.365Z,27.65
2018-12-19T17:26:24.243Z,28.52
2018-12-19T17:28:52.757Z,34.10
2018-12-19T17:31:21.247Z,28.92
2018-12-19T17:33:50.137Z,27.17
2018-12-19T17:36:19.397Z,30.27
2018-12-19T17:38:48.286Z,29.80
2018-12-19T17:41:17.159Z,29.80
2018-12-19T17:43:45.659Z,30.43
2018-12-19T17:46:14.939Z,26.35
2018-12-19T17:48:44.227Z,28.67
2018-12-19T17:51:12.747Z,29.60
2018-12-19T17:53:42.316Z,27.93
2018-12-19T17:56:11.222Z,30.77
2018-12-19T17:58:40.203Z,30.77
2018-12-19T18:01:09.777Z,31.05
2018-12-19T18:03:39.051Z,31.07
2018-12-19T18:06:07.943Z,32.00
2018-12-19T18:08:36.463Z,31.85
2018-12-19T18:11:05.843Z,32.63
2018-12-19T18:13:34.554Z,28.20
2018-12-19T18:16:03.844Z,30.30
2018-12-19T18:18:32.725Z,30.30
2018-12-19T18:21:01.238Z,32.17
2018-12-19T18:23:29.716Z,33.67
2018-12-19T18:25:58.220Z,32.42
2018-12-19T18:28:30.223Z,33.53
2018-12-19T18:30:58.680Z,32.13
2018-12-19T18:33:27.186Z,34.27
2018-12-19T18:35:56.466Z,32.45
2018-12-19T18:38:24.938Z,33.85
2018-12-19T18:40:53.815Z,33.63
2018-12-19T18:43:23.092Z,33.55
2018-12-19T18:45:53.422Z,33.50
2018-12-19T18:48:22.602Z,37.63
2018-12-19T18:50:51.085Z,33.02
2018-12-19T18:53:19.967Z,34.95
2018-12-19T18:55:48.564Z,37.33
2018-12-19T18:58:17.050Z,33.90
2018-12-19T19:00:48.062Z,36.70
2018-12-19T19:03:17.647Z,35.38
2018-12-19T19:05:46.406Z,32.48
2018-12-19T19:08:15.734Z,35.25
2018-12-19T19:10:44.261Z,39.53
2018-12-19T19:13:19.508Z,31.40
2018-12-19T19:15:43.794Z,34.55
2018-12-19T19:18:12.670Z,32.42
2018-12-19T19:20:41.964Z,34.08
2018-12-19T19:23:11.199Z,32.70
2018-12-19T19:25:39.699Z,33.50
2018-12-19T19:28:08.203Z,35.85
2018-12-19T19:30:37.079Z,32.25
2018-12-19T19:33:05.999Z,32.45
2018-12-19T19:35:34.487Z,33.98
2018-12-19T19:38:03.011Z,32.95
2018-12-19T19:40:32.917Z,32.85
2018-12-19T19:43:01.762Z,33.58
2018-12-19T19:45:30.276Z,33.15
2018-12-19T19:47:59.172Z,34.60
2018-12-19T19:50:29.088Z,32.75
2018-12-19T19:52:58.695Z,30.23
2018-12-19T19:55:27.859Z,31.50
2018-12-19T19:57:57.251Z,32.40
2018-12-19T20:00:28.967Z,32.75
2018-12-19T20:02:57.600Z,31.45
2018-12-19T20:05:26.985Z,32.60
2018-12-19T20:07:55.984Z,33.70
2018-12-19T20:10:24.903Z,31.93
2018-12-19T20:12:54.156Z,33.63
2018-12-19T20:15:22.679Z,34.50
2018-12-19T20:17:52.035Z,32.20
2018-12-19T20:20:20.582Z,34.20
2018-12-19T20:22:49.108Z,31.68
2018-12-19T20:25:18.503Z,31.50
2018-12-19T20:27:48.974Z,33.10
2018-12-19T20:30:18.299Z,32.63
2018-12-19T20:32:46.842Z,32.63
2018-12-19T20:35:15.976Z,32.38
2018-12-19T20:37:44.920Z,33.25
2018-12-19T20:40:14.532Z,33.75
2018-12-19T20:42:43.036Z,32.38
2018-12-19T20:45:11.590Z,34.50
2018-12-19T20:47:40.516Z,35.35
2018-12-19T20:50:10.263Z,34.15
2018-12-19T20:52:40.319Z,37.75
2018-12-19T20:55:09.723Z,33.95
2018-12-19T20:57:38.678Z,34.00
2018-12-19T21:00:09.181Z,34.40
2018-12-19T21:02:38.166Z,33.15
2018-12-19T21:05:08.299Z,33.88
2018-12-19T21:07:37.296Z,36.73
2018-12-19T21:10:10.064Z,31.25
2018-12-19T21:12:39.705Z,33.75
2018-12-19T21:15:09.300Z,31.55
2018-12-19T21:17:43.362Z,32.13
2018-12-19T21:20:12.107Z,33.25
2018-12-19T21:22:40.689Z,32.28
2018-12-19T21:25:10.300Z,36.35
2018-12-19T21:27:38.858Z,34.78
2018-12-19T21:30:10.728Z,33.45
2018-12-19T21:32:40.324Z,35.98
2018-12-19T21:35:11.305Z,34.53
2018-12-19T21:37:40.278Z,31.17
2018-12-19T21:40:11.295Z,34.23
2018-12-19T21:42:41.422Z,33.35
2018-12-19T21:45:11.359Z,34.00
2018-12-19T21:47:39.900Z,34.65
2018-12-19T21:50:09.413Z,33.48
2018-12-19T21:52:38.354Z,32.20
2018-12-19T21:55:07.565Z,32.38
2018-12-19T21:57:36.713Z,34.13
2018-12-19T22:00:09.526Z,34.43
2018-12-19T22:02:38.428Z,35.30
2018-12-19T22:05:07.749Z,33.30
2018-12-19T22:07:37.417Z,33.42
2018-12-19T22:10:06.710Z,32.60
2018-12-19T22:12:35.588Z,34.98
2018-12-19T22:15:05.635Z,31.52
2018-12-19T22:17:39.892Z,33.75
2018-12-19T22:20:10.012Z,32.53
2018-12-19T22:22:39.509Z,30.05
2018-12-19T22:25:08.785Z,31.02
2018-12-19T22:27:38.292Z,31.80
2018-12-19T22:30:07.693Z,31.33
2018-12-19T22:32:36.640Z,40.92
2018-12-19T22:35:06.209Z,30.40
2018-12-19T22:37:35.038Z,31.17
2018-12-19T22:40:04.875Z,33.40
2018-12-19T22:42:33.387Z,33.38
2018-12-19T22:45:03.143Z,31.00
2018-12-19T22:47:32.104Z,32.30
2018-12-19T22:50:01.280Z,32.95
2018-12-19T22:52:30.421Z,34.13
2018-12-19T22:54:59.866Z,35.52
2018-12-19T22:57:28.592Z,31.85
2018-12-19T22:59:57.799Z,35.63
2018-12-19T23:02:32.449Z,34.67
2018-12-19T23:05:00.952Z,34.95
2018-12-19T23:07:29.461Z,34.45
2018-12-19T23:09:58.737Z,34.45
2018-12-19T23:12:27.924Z,35.90
2018-12-19T23:14:57.035Z,37.30
2018-12-19T23:17:31.578Z,34.53
2018-12-19T23:20:01.180Z,35.65
2018-12-19T23:22:30.712Z,34.43
2018-12-19T23:24:59.887Z,34.85
2018-12-19T23:27:29.084Z,35.65
2018-12-19T23:29:58.217Z,33.33
2018-12-19T23:32:28.336Z,33.48
2018-12-19T23:34:57.969Z,37.08
2018-12-19T23:37:27.160Z,33.80
2018-12-19T23:39:56.883Z,36.50
2018-12-19T23:42:26.288Z,37.98
2018-12-19T23:44:54.810Z,34.78
2018-12-19T23:47:23.562Z,35.80
2018-12-19T23:49:52.466Z,36.05
2018-12-19T23:52:21.631Z,39.03
2018-12-19T23:54:50.235Z,34.18
2018-12-19T23:57:19.344Z,35.50
2018-12-19T23:59:48.073Z,38.35
